Time;durP1;ratioP1;P1;durP2;ratioP2;P2;SDS_P1;SDS_P2;PMS_P1;PMS_P2;Temp;Humidity;BMP_temperature;BMP_pressure;BME280_temperature;BME280_humidity;BME280_pressure;Samples;Min_cycle;Max_cycle;Signal;HPM_P1;HPM_P2
2023/08/15 00:01:51;;;;;;;11.97;10.77;;;;;;;;;;5092094;28;20024;-64
2023/08/15 00:04:16;;;;;;;12.65;11.20;;;;;;;;;;5086665;28;20343;-64
2023/08/15 00:06:41;;;;;;;11.83;10.53;;;;;;;;;;5083023;28;20028;-64
2023/08/15 00:09:07;;;;;;;11.47;10.23;;;;;;;;;;5073270;28;20336;-64
2023/08/15 00:11:32;;;;;;;11.13;10.00;;;;;;;;;;5087021;28;20273;-64
2023/08/15 00:13:57;;;;;;;11.00;9.93;;;;;;;;;;5089958;28;20714;-64
2023/08/15 00:16:23;;;;;;;12.57;10.95;;;;;;;;;;5086688;28;20270;-64
2023/08/15 00:18:48;;;;;;;11.98;10.77;;;;;;;;;;5041618;28;20024;-64
2023/08/15 00:21:13;;;;;;;10.97;9.97;;;;;;;;;;5042870;28;20024;-64
2023/08/15 00:23:38;;;;;;;12.27;10.37;;;;;;;;;;5034004;28;20275;-64
2023/08/15 00:26:04;;;;;;;11.73;10.52;;;;;;;;;;5038304;28;20275;-64
2023/08/15 00:28:29;;;;;;;11.77;10.57;;;;;;;;;;5034638;28;20035;-64
2023/08/15 00:30:54;;;;;;;10.88;9.88;;;;;;;;;;5036061;28;20374;-64
2023/08/15 00:33:20;;;;;;;12.65;11.02;;;;;;;;;;5045464;28;20289;-64
2023/08/15 00:35:45;;;;;;;11.73;10.48;;;;;;;;;;5044896;28;20077;-64
2023/08/15 00:38:10;;;;;;;12.90;10.97;;;;;;;;;;5037908;28;20033;-65
2023/08/15 00:40:41;;;;;;;10.93;9.93;;;;;;;;;;5044141;28;20289;-65
2023/08/15 00:43:08;;;;;;;12.43;11.15;;;;;;;;;;5039468;28;20089;-64
2023/08/15 00:45:35;;;;;;;13.50;12.10;;;;;;;;;;5039947;28;20028;-64
2023/08/15 00:48:00;;;;;;;13.20;11.65;;;;;;;;;;5043285;28;20020;-65
2023/08/15 00:50:25;;;;;;;12.32;10.88;;;;;;;;;;5035735;28;20372;-64
2023/08/15 00:52:51;;;;;;;13.20;11.80;;;;;;;;;;5038579;28;20081;-64
2023/08/15 00:55:17;;;;;;;12.80;11.63;;;;;;;;;;5036846;28;20016;-64
2023/08/15 00:57:42;;;;;;;13.43;11.95;;;;;;;;;;5039432;28;20020;-64
2023/08/15 01:00:08;;;;;;;13.57;12.18;;;;;;;;;;5042525;28;20855;-64
2023/08/15 01:02:33;;;;;;;13.13;11.70;;;;;;;;;;5040559;28;20020;-65
2023/08/15 01:04:59;;;;;;;12.85;11.60;;;;;;;;;;5030342;28;20778;-65
2023/08/15 01:07:24;;;;;;;13.45;11.60;;;;;;;;;;5040755;28;20135;-65
2023/08/15 01:09:49;;;;;;;14.68;11.32;;;;;;;;;;5039118;28;20894;-65
2023/08/15 01:12:14;;;;;;;13.18;11.77;;;;;;;;;;5038470;28;20838;-65
2023/08/15 01:14:43;;;;;;;12.57;11.30;;;;;;;;;;5042317;28;20032;-65
2023/08/15 01:17:10;;;;;;;12.02;10.82;;;;;;;;;;5045923;28;20281;-65
2023/08/15 01:19:40;;;;;;;15.50;11.35;;;;;;;;;;5045499;28;20400;-65
2023/08/15 01:22:13;;;;;;;12.15;10.95;;;;;;;;;;5043835;28;20147;-65
2023/08/15 01:24:39;;;;;;;15.47;12.20;;;;;;;;;;5042309;28;20024;-65
2023/08/15 01:27:04;;;;;;;12.05;10.80;;;;;;;;;;5040846;28;20063;-65
2023/08/15 01:29:29;;;;;;;13.40;10.63;;;;;;;;;;5038103;28;20143;-65
2023/08/15 01:32:00;;;;;;;11.03;9.57;;;;;;;;;;5043308;28;20024;-65
2023/08/15 01:34:28;;;;;;;12.52;9.68;;;;;;;;;;5040456;28;20278;-65
2023/08/15 01:36:57;;;;;;;12.32;8.98;;;;;;;;;;5053731;28;20090;-65
2023/08/15 01:39:32;;;;;;;12.68;8.82;;;;;;;;;;5081955;28;20065;-65
2023/08/15 01:41:59;;;;;;;9.65;8.57;;;;;;;;;;5078208;28;20029;-65
2023/08/15 01:44:25;;;;;;;10.20;8.63;;;;;;;;;;5078179;28;20017;-65
2023/08/15 01:46:50;;;;;;;12.27;9.05;;;;;;;;;;5082727;28;20024;-65
2023/08/15 01:49:15;;;;;;;13.43;8.27;;;;;;;;;;5066370;28;20024;-65
2023/08/15 01:51:41;;;;;;;10.57;8.40;;;;;;;;;;5039158;28;21198;-65
2023/08/15 01:54:06;;;;;;;11.37;8.80;;;;;;;;;;5024342;28;20767;-65
2023/08/15 01:56:31;;;;;;;9.52;8.48;;;;;;;;;;5042789;28;20266;-65
2023/08/15 01:58:59;;;;;;;10.25;8.55;;;;;;;;;;5038631;28;20124;-64
2023/08/15 02:01:25;;;;;;;9.48;8.10;;;;;;;;;;5041405;28;20024;-64
2023/08/15 02:03:50;;;;;;;9.73;8.73;;;;;;;;;;5037785;28;20058;-63
2023/08/15 02:06:15;;;;;;;9.32;8.20;;;;;;;;;;5091328;28;20822;-65
2023/08/15 02:08:40;;;;;;;10.80;6.43;;;;;;;;;;5085142;28;20493;-64
2023/08/15 02:11:06;;;;;;;9.90;5.75;;;;;;;;;;5085338;28;20749;-64
2023/08/15 02:13:33;;;;;;;10.97;5.70;;;;;;;;;;5082668;28;20020;-64
2023/08/15 02:15:58;;;;;;;6.80;5.13;;;;;;;;;;5090031;28;20274;-64
2023/08/15 02:18:26;;;;;;;8.90;4.87;;;;;;;;;;5091046;28;20024;-65
2023/08/15 02:20:51;;;;;;;6.05;3.40;;;;;;;;;;5090024;28;20389;-65
2023/08/15 02:23:16;;;;;;;5.97;3.47;;;;;;;;;;5090760;28;20649;-65
2023/08/15 02:25:42;;;;;;;4.20;3.50;;;;;;;;;;5085954;28;20277;-65
2023/08/15 02:28:08;;;;;;;5.38;3.72;;;;;;;;;;5089910;28;20111;-66
2023/08/15 02:30:37;;;;;;;6.68;3.85;;;;;;;;;;5085976;28;20119;-65
2023/08/15 02:33:02;;;;;;;6.78;3.70;;;;;;;;;;5085814;28;20521;-65
2023/08/15 02:35:27;;;;;;;5.15;3.22;;;;;;;;;;5090996;28;20087;-65
2023/08/15 02:37:53;;;;;;;8.85;4.20;;;;;;;;;;5087103;28;20093;-65
2023/08/15 02:40:18;;;;;;;6.33;3.33;;;;;;;;;;5078064;28;20024;-65
2023/08/15 02:42:43;;;;;;;5.10;3.23;;;;;;;;;;5059129;28;20266;-67
2023/08/15 02:45:08;;;;;;;7.22;3.78;;;;;;;;;;5035868;28;21244;-65
2023/08/15 02:47:34;;;;;;;5.07;3.20;;;;;;;;;;5040222;28;20024;-66
2023/08/15 02:49:59;;;;;;;7.93;3.88;;;;;;;;;;5039008;28;20016;-66
2023/08/15 02:52:24;;;;;;;7.83;3.77;;;;;;;;;;5076321;28;20491;-65
2023/08/15 02:54:49;;;;;;;5.87;3.57;;;;;;;;;;5089385;28;20305;-65
2023/08/15 02:57:15;;;;;;;6.68;3.80;;;;;;;;;;5090487;28;20262;-66
2023/08/15 02:59:42;;;;;;;6.85;3.72;;;;;;;;;;5076569;28;20107;-66
2023/08/15 03:02:09;;;;;;;7.57;4.50;;;;;;;;;;5090590;28;20494;-66
2023/08/15 03:04:35;;;;;;;7.95;3.95;;;;;;;;;;5060746;28;20035;-66
2023/08/15 03:07:00;;;;;;;8.93;4.50;;;;;;;;;;5053734;28;20775;-64
2023/08/15 03:09:25;;;;;;;10.55;4.50;;;;;;;;;;5037822;28;20837;-64
2023/08/15 03:11:50;;;;;;;7.27;4.80;;;;;;;;;;5068321;28;20059;-64
2023/08/15 03:14:16;;;;;;;11.20;4.70;;;;;;;;;;5089820;28;20768;-64
2023/08/15 03:16:42;;;;;;;4.82;3.97;;;;;;;;;;5091233;28;20593;-64
2023/08/15 03:19:07;;;;;;;5.75;4.45;;;;;;;;;;5087309;28;20028;-64
2023/08/15 03:21:32;;;;;;;11.27;4.65;;;;;;;;;;5089919;28;20091;-64
2023/08/15 03:23:58;;;;;;;8.05;4.57;;;;;;;;;;5091037;28;20071;-64
2023/08/15 03:26:25;;;;;;;8.02;4.35;;;;;;;;;;5093875;28;20534;-64
2023/08/15 03:28:52;;;;;;;8.40;4.57;;;;;;;;;;5069455;28;20028;-65
2023/08/15 03:31:17;;;;;;;5.55;3.97;;;;;;;;;;5091501;28;20121;-64
2023/08/15 03:33:42;;;;;;;6.30;4.40;;;;;;;;;;5088934;28;20507;-64
2023/08/15 03:36:07;;;;;;;9.33;4.57;;;;;;;;;;5091506;28;20277;-64
2023/08/15 03:38:33;;;;;;;10.43;4.97;;;;;;;;;;5088944;28;20274;-65
2023/08/15 03:41:04;;;;;;;9.80;4.90;;;;;;;;;;5083008;28;20037;-64
2023/08/15 03:43:30;;;;;;;8.30;4.97;;;;;;;;;;5086280;28;20274;-65
2023/08/15 03:45:55;;;;;;;10.07;4.93;;;;;;;;;;5073949;28;20086;-64
2023/08/15 03:48:21;;;;;;;11.05;4.78;;;;;;;;;;5087321;28;20040;-64
2023/08/15 03:50:46;;;;;;;6.03;4.35;;;;;;;;;;5043487;28;20029;-64
2023/08/15 03:53:11;;;;;;;9.87;5.57;;;;;;;;;;5031511;28;20017;-64
2023/08/15 03:55:36;;;;;;;10.77;5.83;;;;;;;;;;5034050;28;20283;-64
2023/08/15 03:58:02;;;;;;;9.68;6.30;;;;;;;;;;5040449;28;20270;-64
2023/08/15 04:00:27;;;;;;;10.55;5.55;;;;;;;;;;5044486;28;20024;-64
2023/08/15 04:02:52;;;;;;;15.48;7.90;;;;;;;;;;5043134;28;20070;-64
2023/08/15 04:05:18;;;;;;;16.65;9.27;;;;;;;;;;5042954;28;20028;-64
2023/08/15 04:07:43;;;;;;;13.37;8.03;;;;;;;;;;5030846;28;20021;-64
2023/08/15 04:10:11;;;;;;;18.88;8.75;;;;;;;;;;5036346;28;21079;-64
2023/08/15 04:12:37;;;;;;;9.57;7.93;;;;;;;;;;5045645;28;20028;-64
2023/08/15 04:15:02;;;;;;;10.02;8.43;;;;;;;;;;5041763;28;20095;-64
2023/08/15 04:17:27;;;;;;;13.20;8.35;;;;;;;;;;5042200;28;20853;-64
2023/08/15 04:19:53;;;;;;;12.35;8.18;;;;;;;;;;5034644;28;20030;-64
2023/08/15 04:22:18;;;;;;;11.40;7.88;;;;;;;;;;5055819;28;20390;-63
2023/08/15 04:24:44;;;;;;;14.50;8.18;;;;;;;;;;5083899;28;20387;-64
2023/08/15 04:27:09;;;;;;;11.87;7.37;;;;;;;;;;5081871;28;20101;-64
2023/08/15 04:29:35;;;;;;;13.60;7.35;;;;;;;;;;5075802;28;20277;-64
2023/08/15 04:32:00;;;;;;;13.20;6.53;;;;;;;;;;5037048;28;20859;-64
2023/08/15 04:34:25;;;;;;;15.15;7.68;;;;;;;;;;5039195;28;20285;-64
2023/08/15 04:36:50;;;;;;;11.03;7.53;;;;;;;;;;5041346;28;20024;-64
2023/08/15 04:39:17;;;;;;;10.25;7.30;;;;;;;;;;5035634;28;20278;-64
2023/08/15 04:41:43;;;;;;;14.25;7.10;;;;;;;;;;5046453;28;20122;-64
2023/08/15 04:44:08;;;;;;;12.73;6.75;;;;;;;;;;5041973;28;20984;-64
2023/08/15 04:46:33;;;;;;;10.20;6.10;;;;;;;;;;5040919;28;20970;-64
2023/08/15 04:48:58;;;;;;;12.27;7.22;;;;;;;;;;5033716;28;20032;-64
2023/08/15 04:51:24;;;;;;;12.98;6.90;;;;;;;;;;5033762;28;20094;-64
2023/08/15 04:53:49;;;;;;;12.15;7.30;;;;;;;;;;5062496;28;20025;-65
2023/08/15 04:56:14;;;;;;;10.77;6.00;;;;;;;;;;5073536;28;20025;-65
2023/08/15 04:58:39;;;;;;;13.27;6.63;;;;;;;;;;5076218;28;20396;-65
2023/08/15 05:01:05;;;;;;;14.35;6.93;;;;;;;;;;5073175;28;20020;-65
2023/08/15 05:03:30;;;;;;;14.27;6.45;;;;;;;;;;5044338;28;20036;-64
2023/08/15 05:05:55;;;;;;;10.63;6.05;;;;;;;;;;5041708;28;20020;-64
2023/08/15 05:08:20;;;;;;;10.63;6.47;;;;;;;;;;5040264;28;21198;-64
2023/08/15 05:10:46;;;;;;;11.07;5.70;;;;;;;;;;5061543;28;20035;-64
2023/08/15 05:13:11;;;;;;;9.27;5.77;;;;;;;;;;5077822;28;20275;-64
2023/08/15 05:15:36;;;;;;;9.93;5.87;;;;;;;;;;5051665;28;20269;-64
2023/08/15 05:18:01;;;;;;;13.27;6.20;;;;;;;;;;5037548;28;20281;-64
2023/08/15 05:20:27;;;;;;;13.73;5.30;;;;;;;;;;5044725;28;20838;-65
2023/08/15 05:22:53;;;;;;;9.25;5.20;;;;;;;;;;5078426;28;20051;-65
2023/08/15 05:25:18;;;;;;;8.68;5.00;;;;;;;;;;5075335;28;20025;-65
2023/08/15 05:27:43;;;;;;;10.07;5.38;;;;;;;;;;5077852;28;20501;-65
2023/08/15 05:30:09;;;;;;;7.68;5.00;;;;;;;;;;5075195;28;20070;-65
2023/08/15 05:32:34;;;;;;;10.75;5.20;;;;;;;;;;5079101;28;20058;-65
2023/08/15 05:34:59;;;;;;;5.75;4.18;;;;;;;;;;5077518;28;20095;-66
2023/08/15 05:37:24;;;;;;;12.18;5.03;;;;;;;;;;5080510;28;20020;-65
2023/08/15 05:39:50;;;;;;;9.30;4.83;;;;;;;;;;5077226;28;20024;-64
2023/08/15 05:42:17;;;;;;;8.13;4.80;;;;;;;;;;5078341;28;20322;-65
2023/08/15 05:44:45;;;;;;;9.35;4.90;;;;;;;;;;5071488;28;20328;-65
2023/08/15 05:47:11;;;;;;;9.93;5.97;;;;;;;;;;5080088;28;20031;-65
2023/08/15 05:49:36;;;;;;;10.82;5.68;;;;;;;;;;5078840;28;20025;-65
2023/08/15 05:52:02;;;;;;;11.45;6.38;;;;;;;;;;5082561;28;20016;-65
2023/08/15 05:54:28;;;;;;;11.02;5.55;;;;;;;;;;5091238;28;20355;-65
2023/08/15 05:56:53;;;;;;;12.30;5.53;;;;;;;;;;5074517;28;20029;-65
2023/08/15 05:59:18;;;;;;;15.30;5.50;;;;;;;;;;5071512;28;20281;-65
2023/08/15 06:01:44;;;;;;;10.47;5.23;;;;;;;;;;5074130;28;20434;-65
2023/08/15 06:04:09;;;;;;;9.77;5.53;;;;;;;;;;5071972;28;20286;-65
2023/08/15 06:06:34;;;;;;;9.88;5.30;;;;;;;;;;5078784;28;20441;-64
2023/08/15 06:08:59;;;;;;;7.80;5.03;;;;;;;;;;5080598;28;20055;-65
2023/08/15 06:11:25;;;;;;;9.93;4.53;;;;;;;;;;5091308;28;20308;-65
2023/08/15 06:13:50;;;;;;;9.95;4.60;;;;;;;;;;5089922;28;20024;-65
2023/08/15 06:16:15;;;;;;;12.37;4.77;;;;;;;;;;5089921;28;20028;-65
2023/08/15 06:18:41;;;;;;;10.30;4.97;;;;;;;;;;5049233;28;21216;-65
2023/08/15 06:21:06;;;;;;;7.63;4.07;;;;;;;;;;5031255;28;20293;-65
2023/08/15 06:23:31;;;;;;;7.70;4.15;;;;;;;;;;5035011;28;20809;-65
2023/08/15 06:25:56;;;;;;;10.50;4.07;;;;;;;;;;5043606;28;20020;-65
2023/08/15 06:28:22;;;;;;;13.88;3.65;;;;;;;;;;5038266;28;20266;-65
2023/08/15 06:30:47;;;;;;;8.20;4.00;;;;;;;;;;5043620;28;20098;-65
2023/08/15 06:33:12;;;;;;;9.50;3.25;;;;;;;;;;5038039;28;20775;-65
2023/08/15 06:35:37;;;;;;;7.57;3.35;;;;;;;;;;5081109;28;20099;-65
2023/08/15 06:38:03;;;;;;;9.50;4.23;;;;;;;;;;5090058;28;20073;-65
2023/08/15 06:40:28;;;;;;;7.40;3.78;;;;;;;;;;5086406;28;20259;-65
2023/08/15 06:42:53;;;;;;;10.80;4.03;;;;;;;;;;5089103;28;20055;-65
2023/08/15 06:45:19;;;;;;;9.13;3.42;;;;;;;;;;5078703;28;20546;-65
2023/08/15 06:47:45;;;;;;;7.97;3.88;;;;;;;;;;5071143;28;20109;-65
2023/08/15 06:50:10;;;;;;;9.70;3.80;;;;;;;;;;5080424;28;20470;-65
2023/08/15 06:52:35;;;;;;;9.87;3.43;;;;;;;;;;5077248;28;20070;-65
2023/08/15 06:55:03;;;;;;;5.85;3.08;;;;;;;;;;5082842;28;20335;-65
2023/08/15 06:57:30;;;;;;;7.78;3.72;;;;;;;;;;5076964;28;20174;-65
2023/08/15 06:59:56;;;;;;;6.88;3.67;;;;;;;;;;5077191;28;20043;-65
2023/08/15 07:02:21;;;;;;;8.23;3.67;;;;;;;;;;5077481;28;20518;-65
2023/08/15 07:04:48;;;;;;;7.32;2.60;;;;;;;;;;5082158;28;20039;-64
2023/08/15 07:07:14;;;;;;;5.97;2.80;;;;;;;;;;5084163;28;20023;-64
2023/08/15 07:09:39;;;;;;;9.13;3.25;;;;;;;;;;5086288;28;20016;-65
2023/08/15 07:12:05;;;;;;;6.10;2.40;;;;;;;;;;5087715;28;20052;-65
2023/08/15 07:14:33;;;;;;;4.82;2.30;;;;;;;;;;5076182;28;20394;-65
2023/08/15 07:16:58;;;;;;;4.25;2.25;;;;;;;;;;5087986;28;20035;-65
2023/08/15 07:19:24;;;;;;;8.98;2.55;;;;;;;;;;5087131;28;20364;-65
2023/08/15 07:21:49;;;;;;;7.10;2.70;;;;;;;;;;5077072;28;20029;-65
2023/08/15 07:24:14;;;;;;;5.18;2.45;;;;;;;;;;5085623;28;20278;-65
2023/08/15 07:26:40;;;;;;;4.90;1.92;;;;;;;;;;5087712;28;20040;-65
2023/08/15 07:29:05;;;;;;;7.10;2.10;;;;;;;;;;5086536;28;20027;-65
2023/08/15 07:31:30;;;;;;;3.28;1.92;;;;;;;;;;5087331;28;20270;-65
2023/08/15 07:33:56;;;;;;;4.70;2.00;;;;;;;;;;5085830;28;20031;-65
2023/08/15 07:36:21;;;;;;;6.38;2.30;;;;;;;;;;5087227;28;20040;-64
2023/08/15 07:38:46;;;;;;;7.50;2.53;;;;;;;;;;5086557;28;20028;-64
2023/08/15 07:41:12;;;;;;;4.23;1.77;;;;;;;;;;5087907;28;20308;-65
2023/08/15 07:43:37;;;;;;;4.10;2.33;;;;;;;;;;5075296;28;20682;-65
2023/08/15 07:46:02;;;;;;;4.03;1.88;;;;;;;;;;5071666;28;20290;-65
2023/08/15 07:48:29;;;;;;;5.27;2.50;;;;;;;;;;5057905;28;20028;-65
2023/08/15 07:50:54;;;;;;;4.07;1.42;;;;;;;;;;5037383;28;20263;-65
2023/08/15 07:53:21;;;;;;;5.63;1.67;;;;;;;;;;5034867;28;20075;-65
2023/08/15 07:55:46;;;;;;;2.88;1.20;;;;;;;;;;5032671;28;20016;-65
2023/08/15 07:58:11;;;;;;;2.83;1.30;;;;;;;;;;5034186;28;20028;-65
2023/08/15 08:00:37;;;;;;;9.10;1.63;;;;;;;;;;5075576;28;20036;-64
2023/08/15 08:03:02;;;;;;;3.50;1.50;;;;;;;;;;5082136;28;20821;-65
2023/08/15 08:05:28;;;;;;;3.53;1.25;;;;;;;;;;5092455;28;20016;-65
2023/08/15 08:07:57;;;;;;;2.92;1.45;;;;;;;;;;5081349;28;20474;-64
2023/08/15 08:10:22;;;;;;;3.72;1.55;;;;;;;;;;5053979;28;20994;-64
2023/08/15 08:12:47;;;;;;;3.55;1.45;;;;;;;;;;5031758;28;20024;-65
2023/08/15 08:15:13;;;;;;;4.60;1.80;;;;;;;;;;5030970;28;20063;-64
2023/08/15 08:17:38;;;;;;;2.67;1.15;;;;;;;;;;5076659;28;20024;-65
2023/08/15 08:20:11;;;;;;;4.70;1.75;;;;;;;;;;5085021;28;20029;-63
2023/08/15 08:22:36;;;;;;;3.45;1.20;;;;;;;;;;5061020;28;20032;-65
2023/08/15 08:25:05;;;;;;;2.63;1.38;;;;;;;;;;5074276;28;20024;-66
2023/08/15 08:27:30;;;;;;;4.97;1.60;;;;;;;;;;5082836;28;20115;-64
2023/08/15 08:29:55;;;;;;;3.57;1.83;;;;;;;;;;5089357;28;20091;-64
2023/08/15 08:32:21;;;;;;;5.37;1.57;;;;;;;;;;5079202;28;20278;-64
2023/08/15 08:34:46;;;;;;;2.72;1.35;;;;;;;;;;5042346;28;20267;-64
2023/08/15 08:37:11;;;;;;;4.00;1.47;;;;;;;;;;5034023;28;20078;-65
2023/08/15 08:39:37;;;;;;;4.63;1.50;;;;;;;;;;5038152;28;20298;-64
2023/08/15 08:42:03;;;;;;;5.07;1.77;;;;;;;;;;5036484;28;20024;-64
2023/08/15 08:44:29;;;;;;;2.80;1.42;;;;;;;;;;5041557;28;20020;-64
2023/08/15 08:46:55;;;;;;;4.82;1.70;;;;;;;;;;5042414;28;20816;-64
2023/08/15 08:49:20;;;;;;;3.20;1.52;;;;;;;;;;5044482;28;20069;-64
2023/08/15 08:51:46;;;;;;;3.05;1.42;;;;;;;;;;5044017;28;20131;-64
2023/08/15 08:54:11;;;;;;;4.13;1.60;;;;;;;;;;5043871;28;20032;-64
2023/08/15 08:56:40;;;;;;;4.57;1.53;;;;;;;;;;5039707;28;20028;-64
2023/08/15 08:59:09;;;;;;;2.13;1.10;;;;;;;;;;5037972;28;20342;-64
2023/08/15 09:01:35;;;;;;;7.85;1.80;;;;;;;;;;5037484;28;20021;-64
2023/08/15 09:04:01;;;;;;;5.78;1.75;;;;;;;;;;5039440;28;20173;-64
2023/08/15 09:06:26;;;;;;;3.43;1.70;;;;;;;;;;5072205;28;20021;-64
2023/08/15 09:08:51;;;;;;;3.53;1.70;;;;;;;;;;5077234;28;20279;-64
2023/08/15 09:11:17;;;;;;;2.83;1.55;;;;;;;;;;5085613;28;20032;-64
2023/08/15 09:13:45;;;;;;;4.50;2.08;;;;;;;;;;5071911;28;20035;-64
2023/08/15 09:16:10;;;;;;;4.38;2.05;;;;;;;;;;5076370;28;20019;-64
2023/08/15 09:18:35;;;;;;;4.13;1.60;;;;;;;;;;5089762;28;20032;-64
2023/08/15 09:21:04;;;;;;;4.45;1.85;;;;;;;;;;5088532;28;20301;-65
2023/08/15 09:23:30;;;;;;;3.55;1.63;;;;;;;;;;5086051;28;20417;-64
2023/08/15 09:25:56;;;;;;;7.57;2.03;;;;;;;;;;5085055;28;20102;-64
2023/08/15 09:28:21;;;;;;;8.30;1.90;;;;;;;;;;5089482;28;20111;-64
2023/08/15 09:30:51;;;;;;;5.47;2.13;;;;;;;;;;5088929;28;20355;-65
2023/08/15 09:33:16;;;;;;;3.78;1.83;;;;;;;;;;5083249;28;20039;-64
2023/08/15 09:35:41;;;;;;;3.85;1.48;;;;;;;;;;5039502;28;20024;-64
2023/08/15 09:38:07;;;;;;;5.15;1.85;;;;;;;;;;5053378;28;20036;-64
2023/08/15 09:40:33;;;;;;;6.28;2.55;;;;;;;;;;5075608;28;20043;-64
2023/08/15 09:42:58;;;;;;;6.80;2.08;;;;;;;;;;5089657;28;20424;-65
2023/08/15 09:45:23;;;;;;;4.93;2.03;;;;;;;;;;5087470;28;20020;-64
2023/08/15 09:47:49;;;;;;;4.25;1.90;;;;;;;;;;5089485;28;20467;-64
2023/08/15 09:50:18;;;;;;;3.30;1.65;;;;;;;;;;5084943;28;20025;-65
2023/08/15 09:52:46;;;;;;;5.68;2.15;;;;;;;;;;5083117;28;20370;-64
2023/08/15 09:55:13;;;;;;;3.58;1.67;;;;;;;;;;5079361;28;20402;-64
2023/08/15 09:57:39;;;;;;;5.93;1.80;;;;;;;;;;5089969;28;20024;-64
2023/08/15 10:00:06;;;;;;;3.55;1.80;;;;;;;;;;5060671;28;20031;-64
2023/08/15 10:02:33;;;;;;;4.03;1.73;;;;;;;;;;5037248;28;20041;-65
2023/08/15 10:05:06;;;;;;;3.90;1.63;;;;;;;;;;5035639;28;20947;-65
2023/08/15 10:07:32;;;;;;;3.42;1.73;;;;;;;;;;5040133;28;20028;-64
2023/08/15 10:09:58;;;;;;;4.03;1.98;;;;;;;;;;5039562;28;20047;-63
2023/08/15 10:12:25;;;;;;;3.20;1.65;;;;;;;;;;5046694;28;20051;-64
2023/08/15 10:14:51;;;;;;;4.57;2.00;;;;;;;;;;5031914;28;20032;-63
2023/08/15 10:17:17;;;;;;;4.72;1.85;;;;;;;;;;5038205;28;20028;-64
2023/08/15 10:19:45;;;;;;;4.80;2.03;;;;;;;;;;5036965;28;20036;-64
2023/08/15 10:22:10;;;;;;;4.20;1.75;;;;;;;;;;5032889;28;20125;-63
2023/08/15 10:24:35;;;;;;;4.33;1.80;;;;;;;;;;5029933;28;20887;-64
2023/08/15 10:27:01;;;;;;;3.75;2.10;;;;;;;;;;5038881;28;21155;-63
2023/08/15 10:29:26;;;;;;;4.00;1.65;;;;;;;;;;5067700;28;20027;-63
2023/08/15 10:31:57;;;;;;;4.63;2.03;;;;;;;;;;5090652;28;20057;-64
2023/08/15 10:34:22;;;;;;;4.57;1.73;;;;;;;;;;5090612;28;20386;-64
2023/08/15 10:36:48;;;;;;;2.83;1.33;;;;;;;;;;5090919;28;20044;-63
2023/08/15 10:39:14;;;;;;;6.90;1.70;;;;;;;;;;5081214;28;20308;-64
2023/08/15 10:41:42;;;;;;;3.05;1.48;;;;;;;;;;5038016;28;20302;-63
2023/08/15 10:44:07;;;;;;;4.10;1.73;;;;;;;;;;5040361;28;20912;-64
2023/08/15 10:46:34;;;;;;;3.90;1.63;;;;;;;;;;5041128;28;20028;-64
2023/08/15 10:49:01;;;;;;;3.53;1.73;;;;;;;;;;5036185;28;20252;-64
2023/08/15 10:51:30;;;;;;;2.80;1.55;;;;;;;;;;5069861;28;20386;-64
2023/08/15 10:53:57;;;;;;;4.20;1.52;;;;;;;;;;5072452;28;20032;-63
2023/08/15 10:56:23;;;;;;;4.05;1.63;;;;;;;;;;5082354;28;20016;-64
2023/08/15 10:58:49;;;;;;;4.35;1.38;;;;;;;;;;5081343;28;20471;-63
2023/08/15 11:01:18;;;;;;;5.20;2.10;;;;;;;;;;5083990;28;20061;-64
2023/08/15 11:03:43;;;;;;;3.40;1.83;;;;;;;;;;5075683;28;20032;-64
2023/08/15 11:06:09;;;;;;;5.13;1.80;;;;;;;;;;5081604;28;20074;-64
2023/08/15 11:08:39;;;;;;;6.68;2.40;;;;;;;;;;5079397;28;20078;-64
2023/08/15 11:11:04;;;;;;;6.55;2.10;;;;;;;;;;5076316;28;20032;-64
2023/08/15 11:13:35;;;;;;;4.22;1.75;;;;;;;;;;5076964;28;20430;-64
2023/08/15 11:16:00;;;;;;;4.82;1.98;;;;;;;;;;5075532;28;20509;-64
2023/08/15 11:18:25;;;;;;;4.47;1.75;;;;;;;;;;5078031;28;20052;-64
2023/08/15 11:20:51;;;;;;;5.07;2.05;;;;;;;;;;5071943;28;20040;-64
2023/08/15 11:23:18;;;;;;;4.47;1.77;;;;;;;;;;5077784;28;20028;-63
2023/08/15 11:25:44;;;;;;;4.15;2.08;;;;;;;;;;5073955;28;20035;-64
2023/08/15 11:28:09;;;;;;;4.97;1.60;;;;;;;;;;5072433;28;20016;-64
2023/08/15 11:30:35;;;;;;;3.30;1.25;;;;;;;;;;5076642;28;20060;-64
2023/08/15 11:33:01;;;;;;;2.72;1.23;;;;;;;;;;5078985;28;20039;-64
2023/08/15 11:35:26;;;;;;;3.65;1.33;;;;;;;;;;5081016;28;20061;-64
2023/08/15 11:37:51;;;;;;;4.40;1.43;;;;;;;;;;5081250;28;20029;-64
2023/08/15 11:40:17;;;;;;;4.13;1.63;;;;;;;;;;5079079;28;20845;-64
2023/08/15 11:42:42;;;;;;;3.88;1.60;;;;;;;;;;5058547;28;20294;-64
2023/08/15 11:45:14;;;;;;;3.95;1.58;;;;;;;;;;5080054;28;20099;-64
2023/08/15 11:47:54;;;;;;;4.20;1.67;;;;;;;;;;5074033;28;20089;-64
2023/08/15 11:50:19;;;;;;;3.35;1.30;;;;;;;;;;5073815;28;20463;-64
2023/08/15 11:52:45;;;;;;;3.70;1.37;;;;;;;;;;5088176;28;20107;-64
2023/08/15 11:55:10;;;;;;;4.55;1.65;;;;;;;;;;5078101;28;20303;-64
2023/08/15 11:57:36;;;;;;;3.40;1.60;;;;;;;;;;5064545;28;20059;-64
2023/08/15 12:00:04;;;;;;;4.07;1.23;;;;;;;;;;5035935;28;20020;-64
2023/08/15 12:02:29;;;;;;;4.30;1.58;;;;;;;;;;5070760;28;20028;-63
2023/08/15 12:04:55;;;;;;;2.97;1.10;;;;;;;;;;5086438;28;20024;-63
2023/08/15 12:07:20;;;;;;;4.78;1.80;;;;;;;;;;5092937;28;20081;-63
2023/08/15 12:09:46;;;;;;;3.58;1.50;;;;;;;;;;5092691;28;20028;-63
2023/08/15 12:12:19;;;;;;;3.08;1.27;;;;;;;;;;5093283;28;20028;-64
2023/08/15 12:14:47;;;;;;;3.42;1.25;;;;;;;;;;5093176;28;20024;-64
2023/08/15 12:17:12;;;;;;;3.38;1.38;;;;;;;;;;5090337;28;20044;-64
2023/08/15 12:19:38;;;;;;;4.65;1.75;;;;;;;;;;5083891;28;20034;-64
2023/08/15 12:22:03;;;;;;;4.43;1.77;;;;;;;;;;5085142;28;20028;-64
2023/08/15 12:24:28;;;;;;;5.10;1.63;;;;;;;;;;5082815;28;20540;-64
2023/08/15 12:26:54;;;;;;;8.63;1.50;;;;;;;;;;5084573;28;20043;-64
2023/08/15 12:29:19;;;;;;;3.17;1.27;;;;;;;;;;5079701;28;20029;-64
2023/08/15 12:31:44;;;;;;;2.65;1.40;;;;;;;;;;5079857;28;20040;-64
2023/08/15 12:34:09;;;;;;;9.68;1.35;;;;;;;;;;5085656;28;20016;-65
2023/08/15 12:36:35;;;;;;;3.77;1.50;;;;;;;;;;5083930;28;20048;-64
2023/08/15 12:39:00;;;;;;;3.15;1.42;;;;;;;;;;5088410;28;20271;-64
2023/08/15 12:41:25;;;;;;;3.23;1.30;;;;;;;;;;5076470;28;20090;-63
2023/08/15 12:43:51;;;;;;;3.07;1.00;;;;;;;;;;5072011;28;20031;-64
2023/08/15 12:46:16;;;;;;;65.15;24.10;;;;;;;;;;5073308;28;20020;-64
2023/08/15 12:48:41;;;;;;;32.50;11.73;;;;;;;;;;5073103;28;20965;-65
2023/08/15 12:51:07;;;;;;;39.93;20.03;;;;;;;;;;5073015;28;20028;-61
2023/08/15 12:53:32;;;;;;;39.00;14.17;;;;;;;;;;5090267;28;20020;-61
2023/08/15 12:55:57;;;;;;;3.80;1.63;;;;;;;;;;5080457;28;20400;-61
2023/08/15 12:58:22;;;;;;;2.10;0.90;;;;;;;;;;5077458;28;20032;-61
2023/08/15 13:00:48;;;;;;;1.90;0.97;;;;;;;;;;5091660;28;20024;-61
2023/08/15 13:03:14;;;;;;;2.60;1.35;;;;;;;;;;5080006;28;20022;-61
2023/08/15 13:05:39;;;;;;;2.60;1.02;;;;;;;;;;5082501;28;20028;-61
2023/08/15 13:08:05;;;;;;;2.07;0.90;;;;;;;;;;5078195;28;20047;-61
2023/08/15 13:10:30;;;;;;;2.35;1.13;;;;;;;;;;5074768;28;20269;-61
2023/08/15 13:12:55;;;;;;;3.00;1.30;;;;;;;;;;5063787;28;20020;-61
2023/08/15 13:15:21;;;;;;;2.70;1.20;;;;;;;;;;5037629;28;20032;-63
2023/08/15 13:17:46;;;;;;;2.00;1.10;;;;;;;;;;5045906;28;20020;-63
2023/08/15 13:20:11;;;;;;;2.60;0.83;;;;;;;;;;5033486;28;20066;-63
2023/08/15 13:22:37;;;;;;;2.72;1.10;;;;;;;;;;5041758;28;21199;-62
2023/08/15 13:25:02;;;;;;;3.00;1.20;;;;;;;;;;5041554;28;20125;-63
2023/08/15 13:27:27;;;;;;;1.85;0.85;;;;;;;;;;5032146;28;20310;-62
2023/08/15 13:29:52;;;;;;;3.87;1.70;;;;;;;;;;5038356;28;20027;-62
2023/08/15 13:32:18;;;;;;;3.50;1.55;;;;;;;;;;5033859;28;20024;-62
2023/08/15 13:34:43;;;;;;;3.30;1.17;;;;;;;;;;5032646;28;20029;-62
2023/08/15 13:37:08;;;;;;;3.30;1.33;;;;;;;;;;5046169;28;20397;-62
2023/08/15 13:39:33;;;;;;;3.03;1.40;;;;;;;;;;5035147;28;20013;-62
2023/08/15 13:41:59;;;;;;;2.93;1.23;;;;;;;;;;5042197;28;20334;-62
2023/08/15 13:44:24;;;;;;;2.40;1.30;;;;;;;;;;5072376;28;20271;-62
2023/08/15 13:46:49;;;;;;;1.90;1.00;;;;;;;;;;5085497;28;20030;-62
2023/08/15 13:49:15;;;;;;;2.95;1.08;;;;;;;;;;5079526;28;20294;-62
2023/08/15 13:51:40;;;;;;;3.67;1.77;;;;;;;;;;5078549;28;20031;-61
2023/08/15 13:54:06;;;;;;;3.28;1.52;;;;;;;;;;5077896;28;20146;-62
2023/08/15 13:56:31;;;;;;;2.15;1.10;;;;;;;;;;5086500;28;20043;-62
2023/08/15 13:58:56;;;;;;;2.30;0.80;;;;;;;;;;5076109;28;20077;-62
2023/08/15 14:01:21;;;;;;;3.07;1.10;;;;;;;;;;5085858;28;20038;-62
2023/08/15 14:03:47;;;;;;;3.33;1.30;;;;;;;;;;5084225;28;20055;-62
2023/08/15 14:06:12;;;;;;;4.53;1.20;;;;;;;;;;5083914;28;20111;-62
2023/08/15 14:08:37;;;;;;;2.80;1.35;;;;;;;;;;5074484;28;20274;-62
2023/08/15 14:11:03;;;;;;;2.30;1.00;;;;;;;;;;5072068;28;20020;-62
2023/08/15 14:13:29;;;;;;;2.97;1.30;;;;;;;;;;5087972;28;20278;-62
2023/08/15 14:15:54;;;;;;;2.83;1.10;;;;;;;;;;5083551;28;20036;-62
2023/08/15 14:18:19;;;;;;;2.78;1.40;;;;;;;;;;5088174;28;20679;-62
2023/08/15 14:20:44;;;;;;;5.32;1.02;;;;;;;;;;5083117;28;20103;-62
2023/08/15 14:23:10;;;;;;;2.93;1.13;;;;;;;;;;5084371;28;20034;-62
2023/08/15 14:25:35;;;;;;;2.33;1.10;;;;;;;;;;5077272;28;20099;-62
2023/08/15 14:28:00;;;;;;;3.73;1.33;;;;;;;;;;5080133;28;20108;-62
2023/08/15 14:30:26;;;;;;;2.30;1.23;;;;;;;;;;5086413;28;20890;-62